Weather History for Devils Lake, ND

Change the Weather History Date:

Wednesday, April 23, 2014

  Actual Average Record
Temperature  
Mean Temperature 42 °F -  
Max Temperature 46 °F 57 °F 86 °F (1990)
Min Temperature 37 °F 34 °F 12 °F (2013)
Degree Days  
Heating Degree Days 24    
Moisture  
Dew Point 33 °F    
Average Humidity 73    
Maximum Humidity 87    
Minimum Humidity 53    
Precipitation  
Precipitation 0.49 in - - ()
Sea Level Pressure  
Sea Level Pressure 29.78 in    
Wind  
Wind Speed 19 mph (SE)    
Max Wind Speed 29 mph    
Max Gust Speed 41 mph    
Visibility 9 miles    
Events      
Averages and records for this station are not official NWS values.
T = Trace of Precipitation, MM = Missing Value Source: NWS Daily Summary

Daily Weather History Graph

Daily Weather History Graph

Search for Another Location

Airport:

Trip Planner

Search our weather history database for the weather conditions in past years. The results will help you decide how hot, cold, wet, or windy it might be!

Date:

Astronomy

Apr. 23, 2014 Rise Set
Actual Time 6:30 AM CDT 8:37 PM CDT
Civil Twilight 5:57 AM CDT 9:11 PM CDT
Nautical Twilight 5:15 AM CDT 9:53 PM CDT
Astronomical Twilight 4:28 AM CDT 10:40 PM CDT
Moon 3:31 AM CDT (4/23) 2:21 PM CDT (4/23)
Length of Visible Light 15h 14m
Length of Day
14h 06m
Waning Crescent, 34% of the Moon is Illuminated
Apr 23
Waning Crescent
Apr 29
New
May 6
First Quarter
May 14
Full
May 21
Last Quarter

Hourly Weather History & Observations

Time (CDT) Temp. Windchill Dew Point Humidity Pressure Visibility Wind Dir Wind Speed Gust Speed Precip Events Conditions
12:15 AM 46.4 °F 40.1 °F 30.2 °F 53% 29.91 in 10.0 mi ESE 15.0 mph - N/A   Clear
12:35 AM 44.6 °F 37.2 °F 30.2 °F 57% 29.90 in 10.0 mi ESE 17.3 mph - N/A   Clear
12:55 AM 44.6 °F 37.2 °F 30.2 °F 57% 29.90 in 10.0 mi ESE 17.3 mph 23.0 mph N/A   Clear
1:15 AM 44.6 °F 37.4 °F 30.2 °F 57% 29.89 in 10.0 mi ESE 16.1 mph - N/A   Clear
1:35 AM 42.8 °F 35.4 °F 30.2 °F 61% 29.89 in 10.0 mi ESE 15.0 mph 20.7 mph N/A   Clear
1:55 AM 42.8 °F 35.8 °F 30.2 °F 61% 29.88 in 10.0 mi ESE 13.8 mph - N/A   Clear
2:15 AM 42.8 °F 35.4 °F 30.2 °F 61% 29.88 in 10.0 mi ESE 15.0 mph 21.9 mph N/A   Clear
2:35 AM 44.6 °F 36.9 °F 28.4 °F 53% 29.87 in 10.0 mi ESE 18.4 mph 24.2 mph N/A   Clear
2:55 AM 42.8 °F 34.5 °F 30.2 °F 61% 29.86 in 10.0 mi ESE 18.4 mph - N/A   Clear
3:15 AM 42.8 °F 34.8 °F 30.2 °F 61% 29.86 in 10.0 mi ESE 17.3 mph 23.0 mph N/A   Clear
3:35 AM 42.8 °F 34.8 °F 28.4 °F 57% 29.86 in 10.0 mi ESE 17.3 mph 23.0 mph N/A   Clear
3:55 AM 42.8 °F 34.8 °F 28.4 °F 57% 29.85 in 10.0 mi ESE 17.3 mph 24.2 mph N/A   Clear
4:15 AM 42.8 °F 34.0 °F 28.4 °F 57% 29.85 in 10.0 mi ESE 20.7 mph 25.3 mph N/A   Clear
4:35 AM 42.8 °F 34.5 °F 28.4 °F 57% 29.84 in 10.0 mi ESE 18.4 mph 26.5 mph N/A   Clear
4:55 AM 42.8 °F 34.5 °F 28.4 °F 57% 29.83 in 10.0 mi ESE 18.4 mph 24.2 mph N/A   Scattered Clouds
5:15 AM 44.6 °F 36.1 °F 28.4 °F 53% 29.81 in 10.0 mi ESE 21.9 mph 31.1 mph N/A   Overcast
5:35 AM 44.6 °F 36.4 °F 28.4 °F 53% 29.81 in 10.0 mi SE 20.7 mph 27.6 mph N/A   Overcast
5:55 AM 44.6 °F 36.9 °F 28.4 °F 53% 29.81 in 10.0 mi SE 18.4 mph 27.6 mph N/A   Overcast
6:15 AM 42.8 °F 33.8 °F 28.4 °F 57% 29.80 in 10.0 mi SE 21.9 mph 26.5 mph N/A   Mostly Cloudy
6:35 AM 42.8 °F 34.3 °F 28.4 °F 57% 29.81 in 10.0 mi SE 19.6 mph 25.3 mph N/A   Overcast
6:55 AM 42.8 °F 34.3 °F 28.4 °F 57% 29.81 in 10.0 mi SE 19.6 mph - N/A   Overcast
7:15 AM 42.8 °F 33.8 °F 28.4 °F 57% 29.79 in 10.0 mi SE 21.9 mph - N/A   Mostly Cloudy
7:35 AM 41.0 °F 31.9 °F 30.2 °F 65% 29.78 in 10.0 mi SE 19.6 mph 25.3 mph N/A   Overcast
7:55 AM 41.0 °F 31.9 °F 30.2 °F 65% 29.78 in 10.0 mi SE 19.6 mph 26.5 mph N/A   Overcast
8:15 AM 39.2 °F 29.6 °F 30.2 °F 70% 29.78 in 10.0 mi SE 19.6 mph 26.5 mph N/A   Overcast
8:35 AM 39.2 °F 29.8 °F 32.0 °F 75% 29.78 in 10.0 mi SE 18.4 mph - N/A   Overcast
8:55 AM 39.2 °F 29.8 °F 33.8 °F 81% 29.79 in 9.0 mi SE 18.4 mph - 0.02 in   Overcast
9:15 AM 39.2 °F 30.2 °F 33.8 °F 81% 29.79 in 5.0 mi SE 17.3 mph 23.0 mph 0.04 in   Overcast
9:35 AM 39.2 °F 29.6 °F 33.8 °F 81% 29.77 in 5.0 mi SE 19.6 mph 23.0 mph 0.07 in   Overcast
9:55 AM 39.2 °F 29.0 °F 35.6 °F 87% 29.76 in 5.0 mi SE 21.9 mph - 0.09 in   Overcast
10:15 AM 39.2 °F 29.3 °F 35.6 °F 87% 29.76 in 5.0 mi SE 20.7 mph 27.6 mph 0.01 in   Overcast
10:35 AM 39.2 °F 30.2 °F 35.6 °F 87% 29.76 in 5.0 mi SE 17.3 mph - 0.03 in   Overcast
10:55 AM 39.2 °F 30.5 °F 35.6 °F 87% 29.77 in 5.0 mi SE 16.1 mph - 0.05 in   Overcast
11:15 AM 41.0 °F 32.8 °F 35.6 °F 81% 29.77 in 5.0 mi SE 16.1 mph - 0.02 in   Overcast
11:35 AM 41.0 °F 31.9 °F 35.6 °F 81% 29.77 in 8.0 mi SE 19.6 mph 24.2 mph 0.02 in   Overcast
11:55 AM 42.8 °F 34.3 °F 35.6 °F 76% 29.76 in 10.0 mi SE 19.6 mph 25.3 mph N/A   Overcast
12:15 PM 42.8 °F 34.3 °F 37.4 °F 81% 29.76 in 10.0 mi SE 19.6 mph - N/A   Overcast
12:35 PM 42.8 °F 34.3 °F 35.6 °F 76% 29.76 in 10.0 mi SE 19.6 mph 25.3 mph N/A   Overcast
12:55 PM 42.8 °F 33.8 °F 35.6 °F 76% 29.75 in 10.0 mi SE 21.9 mph 26.5 mph N/A   Overcast
1:15 PM 42.8 °F 33.5 °F 37.4 °F 81% 29.74 in 10.0 mi SE 23.0 mph 31.1 mph N/A   Overcast
1:35 PM 42.8 °F 33.8 °F 35.6 °F 76% 29.74 in 10.0 mi SE 21.9 mph 31.1 mph N/A   Overcast
1:55 PM 42.8 °F 33.5 °F 35.6 °F 76% 29.74 in 10.0 mi SE 23.0 mph 28.8 mph N/A   Overcast
2:15 PM 42.8 °F 33.1 °F 35.6 °F 76% 29.74 in 10.0 mi SE 25.3 mph 31.1 mph N/A   Overcast
2:35 PM 42.8 °F 33.5 °F 35.6 °F 76% 29.73 in 10.0 mi SE 23.0 mph 31.1 mph N/A   Overcast
2:55 PM 42.8 °F 32.9 °F 35.6 °F 76% 29.75 in 8.0 mi SE 26.5 mph 32.2 mph N/A   Overcast
3:15 PM 41.0 °F 31.4 °F 35.6 °F 81% 29.75 in 5.0 mi SE 21.9 mph 31.1 mph 0.03 in   Overcast
3:35 PM 41.0 °F 31.9 °F 35.6 °F 81% 29.74 in 5.0 mi SE 19.6 mph 34.5 mph 0.07 in   Overcast
3:55 PM 39.2 °F 28.0 °F 33.8 °F 81% 29.74 in 8.0 mi SE 26.5 mph 33.4 mph 0.09 in   Mostly Cloudy
4:15 PM 39.2 °F 28.3 °F 33.8 °F 81% 29.74 in 9.0 mi SE 25.3 mph 34.5 mph 0.01 in   Overcast
4:35 PM 39.2 °F 27.6 °F 33.8 °F 81% 29.72 in 10.0 mi ESE 28.8 mph 38.0 mph 0.02 in   Overcast
4:55 PM 41.0 °F 30.7 °F 33.8 °F 76% 29.71 in 10.0 mi SE 25.3 mph 34.5 mph 0.02 in   Overcast
5:15 PM 41.0 °F 30.7 °F 33.8 °F 76% 29.72 in 10.0 mi SE 25.3 mph 34.5 mph N/A   Overcast
5:35 PM 39.2 °F 28.7 °F 33.8 °F 81% 29.72 in 9.0 mi SE 23.0 mph 33.4 mph 0.01 in   Overcast
5:55 PM 39.2 °F 28.0 °F 33.8 °F 81% 29.72 in 10.0 mi SE 26.5 mph 33.4 mph 0.02 in   Overcast
6:15 PM 39.2 °F 27.8 °F 33.8 °F 81% 29.67 in 5.0 mi ESE 27.6 mph 41.4 mph 0.04 in   Overcast
6:35 PM 39.2 °F 29.8 °F 33.8 °F 81% 29.75 in 7.0 mi SE 18.4 mph - 0.10 in   Overcast
6:55 PM 37.4 °F 26.1 °F 32.0 °F 81% 29.73 in 8.0 mi ESE 24.2 mph 28.8 mph 0.13 in   Overcast
7:15 PM 39.2 °F 28.7 °F 32.0 °F 75% 29.73 in 7.0 mi SE 23.0 mph 28.8 mph 0.01 in   Overcast
7:35 PM 39.2 °F 29.6 °F 33.8 °F 81% 29.72 in 8.0 mi SE 19.6 mph 27.6 mph 0.02 in   Overcast
7:55 PM 37.4 °F 26.4 °F 33.8 °F 87% 29.72 in 8.0 mi SE 23.0 mph 31.1 mph 0.02 in   Overcast
8:15 PM 37.4 °F 26.9 °F 33.8 °F 87% 29.73 in 10.0 mi SE 20.7 mph 28.8 mph 0.01 in   Overcast
8:35 PM 37.4 °F 27.2 °F 32.0 °F 81% 29.73 in 10.0 mi SE 19.6 mph 28.8 mph 0.01 in   Overcast
8:55 PM 37.4 °F 26.6 °F 32.0 °F 81% 29.73 in 9.0 mi SE 21.9 mph - 0.02 in   Overcast
9:15 PM 37.4 °F 27.2 °F 32.0 °F 81% 29.74 in 10.0 mi SE 19.6 mph - N/A   Overcast
9:35 PM 37.4 °F 26.9 °F 32.0 °F 81% 29.74 in 10.0 mi SE 20.7 mph - N/A   Overcast
9:55 PM 37.4 °F 27.5 °F 32.0 °F 81% 29.75 in 6.0 mi SE 18.4 mph 23.0 mph N/A   Overcast
10:15 PM 37.4 °F 28.9 °F 33.8 °F 87% 29.75 in 8.0 mi SE 13.8 mph - N/A   Overcast
10:35 PM 37.4 °F 28.9 °F 33.8 °F 87% 29.76 in 8.0 mi SE 13.8 mph - N/A   Overcast
10:55 PM 37.4 °F 28.9 °F 33.8 °F 87% 29.76 in 8.0 mi SSE 13.8 mph - 0.01 in   Overcast
11:15 PM 37.4 °F 28.5 °F 33.8 °F 87% 29.75 in 9.0 mi SE 15.0 mph 20.7 mph N/A   Overcast
11:35 PM 37.4 °F 28.5 °F 33.8 °F 87% 29.74 in 6.0 mi SE 15.0 mph - N/A   Overcast
11:55 PM 37.4 °F 28.9 °F 33.8 °F 87% 29.74 in 7.0 mi SE 13.8 mph - N/A   Overcast